sensor_id;sensor_type;location;lat;lon;timestamp;pressure;altitude;pressure_sealevel;temperature;humidity
38163;BME280;23977;53.078;18.248;2023-08-17T00:02:21;101726.28;;;19.86;80.01
38163;BME280;23977;53.078;18.248;2023-08-17T00:04:46;101720.47;;;19.82;80.02
38163;BME280;23977;53.078;18.248;2023-08-17T00:07:12;101704.31;;;19.67;80.22
38163;BME280;23977;53.078;18.248;2023-08-17T00:09:39;101722.91;;;19.77;80.84
38163;BME280;23977;53.078;18.248;2023-08-17T00:12:04;101695.91;;;19.77;80.27
38163;BME280;23977;53.078;18.248;2023-08-17T00:14:30;101708.75;;;19.75;80.50
38163;BME280;23977;53.078;18.248;2023-08-17T00:16:56;101714.09;;;19.68;81.29
38163;BME280;23977;53.078;18.248;2023-08-17T00:19:21;101711.84;;;19.72;81.32
38163;BME280;23977;53.078;18.248;2023-08-17T00:21:47;101711.91;;;19.78;80.82
38163;BME280;23977;53.078;18.248;2023-08-17T00:24:13;101696.53;;;19.79;80.41
38163;BME280;23977;53.078;18.248;2023-08-17T00:26:38;101713.00;;;19.63;81.45
38163;BME280;23977;53.078;18.248;2023-08-17T00:29:04;101698.88;;;19.60;81.05
38163;BME280;23977;53.078;18.248;2023-08-17T00:31:29;101693.75;;;19.72;80.08
38163;BME280;23977;53.078;18.248;2023-08-17T00:33:55;101699.38;;;19.71;79.86
38163;BME280;23977;53.078;18.248;2023-08-17T00:36:21;101678.84;;;19.48;79.52
38163;BME280;23977;53.078;18.248;2023-08-17T00:38:46;101715.88;;;19.54;79.70
38163;BME280;23977;53.078;18.248;2023-08-17T00:41:12;101701.44;;;19.69;77.32
38163;BME280;23977;53.078;18.248;2023-08-17T00:43:37;101720.34;;;19.69;77.87
38163;BME280;23977;53.078;18.248;2023-08-17T00:46:03;101716.34;;;19.65;77.98
38163;BME280;23977;53.078;18.248;2023-08-17T00:48:29;101714.09;;;19.68;77.88
38163;BME280;23977;53.078;18.248;2023-08-17T00:50:57;101721.13;;;19.63;78.33
38163;BME280;23977;53.078;18.248;2023-08-17T00:53:26;101703.47;;;19.67;77.66
38163;BME280;23977;53.078;18.248;2023-08-17T00:55:52;101719.63;;;19.60;78.48
38163;BME280;23977;53.078;18.248;2023-08-17T00:58:20;101709.44;;;19.55;78.81
38163;BME280;23977;53.078;18.248;2023-08-17T01:00:46;101713.78;;;19.56;79.34
38163;BME280;23977;53.078;18.248;2023-08-17T01:03:12;101716.69;;;19.55;79.32
38163;BME280;23977;53.078;18.248;2023-08-17T01:05:37;101715.09;;;19.60;79.47
38163;BME280;23977;53.078;18.248;2023-08-17T01:08:04;101709.28;;;19.64;79.58
38163;BME280;23977;53.078;18.248;2023-08-17T01:10:59;101708.81;;;19.60;80.42
38163;BME280;23977;53.078;18.248;2023-08-17T01:13:35;101721.41;;;19.46;81.33
38163;BME280;23977;53.078;18.248;2023-08-17T01:16:05;101716.19;;;19.45;81.79
38163;BME280;23977;53.078;18.248;2023-08-17T01:18:37;101695.75;;;19.29;82.12
38163;BME280;23977;53.078;18.248;2023-08-17T01:21:06;101689.47;;;19.28;83.05
38163;BME280;23977;53.078;18.248;2023-08-17T01:23:32;101712.38;;;19.32;82.69
38163;BME280;23977;53.078;18.248;2023-08-17T01:25:57;101695.53;;;19.30;82.59
38163;BME280;23977;53.078;18.248;2023-08-17T01:28:23;101703.22;;;19.33;83.43
38163;BME280;23977;53.078;18.248;2023-08-17T01:30:55;101697.88;;;19.40;83.18
38163;BME280;23977;53.078;18.248;2023-08-17T01:33:29;101699.84;;;19.25;83.81
38163;BME280;23977;53.078;18.248;2023-08-17T01:36:05;101713.97;;;19.27;83.70
38163;BME280;23977;53.078;18.248;2023-08-17T01:38:34;101715.16;;;19.17;84.65
38163;BME280;23977;53.078;18.248;2023-08-17T01:41:01;101698.97;;;19.17;84.57
38163;BME280;23977;53.078;18.248;2023-08-17T01:43:28;101700.81;;;19.17;85.16
38163;BME280;23977;53.078;18.248;2023-08-17T01:45:54;101687.53;;;18.94;86.22
38163;BME280;23977;53.078;18.248;2023-08-17T01:48:20;101688.31;;;18.88;87.00
38163;BME280;23977;53.078;18.248;2023-08-17T01:50:45;101694.59;;;18.95;87.34
38163;BME280;23977;53.078;18.248;2023-08-17T01:53:11;101696.66;;;18.93;87.87
38163;BME280;23977;53.078;18.248;2023-08-17T01:55:37;101694.97;;;18.92;88.19
38163;BME280;23977;53.078;18.248;2023-08-17T01:58:03;101686.88;;;18.92;88.28
38163;BME280;23977;53.078;18.248;2023-08-17T02:00:28;101698.06;;;19.10;87.65
38163;BME280;23977;53.078;18.248;2023-08-17T02:02:54;101700.25;;;19.00;88.03
38163;BME280;23977;53.078;18.248;2023-08-17T02:05:20;101701.53;;;19.26;87.08
38163;BME280;23977;53.078;18.248;2023-08-17T02:07:45;101707.63;;;19.13;87.09
38163;BME280;23977;53.078;18.248;2023-08-17T02:10:11;101710.38;;;19.19;87.33
38163;BME280;23977;53.078;18.248;2023-08-17T02:12:37;101685.91;;;18.99;87.61
38163;BME280;23977;53.078;18.248;2023-08-17T02:15:02;101690.75;;;19.04;87.93
38163;BME280;23977;53.078;18.248;2023-08-17T02:17:28;101670.97;;;18.97;88.05
38163;BME280;23977;53.078;18.248;2023-08-17T02:19:53;101675.97;;;19.00;88.42
38163;BME280;23977;53.078;18.248;2023-08-17T02:22:19;101656.66;;;18.81;89.03
38163;BME280;23977;53.078;18.248;2023-08-17T02:24:44;101665.44;;;18.83;89.21
38163;BME280;23977;53.078;18.248;2023-08-17T02:27:12;101683.47;;;18.83;89.64
38163;BME280;23977;53.078;18.248;2023-08-17T02:29:37;101685.53;;;19.02;88.65
38163;BME280;23977;53.078;18.248;2023-08-17T02:32:04;101656.16;;;18.71;89.25
38163;BME280;23977;53.078;18.248;2023-08-17T02:34:30;101678.53;;;18.86;89.04
38163;BME280;23977;53.078;18.248;2023-08-17T02:36:55;101683.72;;;18.88;89.07
38163;BME280;23977;53.078;18.248;2023-08-17T02:39:21;101668.13;;;18.83;88.81
38163;BME280;23977;53.078;18.248;2023-08-17T02:41:47;101679.56;;;18.85;89.33
38163;BME280;23977;53.078;18.248;2023-08-17T02:44:15;101653.28;;;18.73;89.30
38163;BME280;23977;53.078;18.248;2023-08-17T02:46:41;101667.75;;;18.86;89.21
38163;BME280;23977;53.078;18.248;2023-08-17T02:49:06;101666.72;;;18.88;89.57
38163;BME280;23977;53.078;18.248;2023-08-17T02:51:32;101667.75;;;18.86;89.65
38163;BME280;23977;53.078;18.248;2023-08-17T02:53:57;101676.75;;;18.94;89.31
38163;BME280;23977;53.078;18.248;2023-08-17T02:56:23;101679.84;;;18.91;89.24
38163;BME280;23977;53.078;18.248;2023-08-17T02:58:49;101674.44;;;18.91;89.20
38163;BME280;23977;53.078;18.248;2023-08-17T03:01:14;101668.00;;;18.92;88.78
38163;BME280;23977;53.078;18.248;2023-08-17T03:03:40;101669.72;;;18.99;88.29
38163;BME280;23977;53.078;18.248;2023-08-17T03:06:07;101678.66;;;19.00;87.55
38163;BME280;23977;53.078;18.248;2023-08-17T03:08:33;101679.31;;;19.02;87.39
38163;BME280;23977;53.078;18.248;2023-08-17T03:10:59;101682.66;;;19.04;87.22
38163;BME280;23977;53.078;18.248;2023-08-17T03:13:24;101671.47;;;19.07;86.89
38163;BME280;23977;53.078;18.248;2023-08-17T03:15:50;101671.84;;;19.04;86.63
38163;BME280;23977;53.078;18.248;2023-08-17T03:18:15;101677.88;;;19.06;86.33
38163;BME280;23977;53.078;18.248;2023-08-17T03:20:41;101671.84;;;19.04;86.38
38163;BME280;23977;53.078;18.248;2023-08-17T03:23:06;101681.09;;;18.95;86.71
38163;BME280;23977;53.078;18.248;2023-08-17T03:25:34;101687.16;;;18.97;86.82
38163;BME280;23977;53.078;18.248;2023-08-17T03:28:00;101677.72;;;18.86;86.26
38163;BME280;23977;53.078;18.248;2023-08-17T03:30:26;101689.31;;;18.86;86.86
38163;BME280;23977;53.078;18.248;2023-08-17T03:32:51;101684.31;;;19.05;86.17
38163;BME280;23977;53.078;18.248;2023-08-17T03:35:17;101683.28;;;19.06;86.35
38163;BME280;23977;53.078;18.248;2023-08-17T03:37:42;101691.13;;;19.01;86.83
38163;BME280;23977;53.078;18.248;2023-08-17T03:40:08;101697.34;;;19.01;86.42
38163;BME280;23977;53.078;18.248;2023-08-17T03:42:34;101694.06;;;19.06;85.82
38163;BME280;23977;53.078;18.248;2023-08-17T03:44:59;101690.88;;;18.96;85.88
38163;BME280;23977;53.078;18.248;2023-08-17T03:47:25;101714.38;;;19.02;86.71
38163;BME280;23977;53.078;18.248;2023-08-17T03:49:51;101704.63;;;19.01;86.74
38163;BME280;23977;53.078;18.248;2023-08-17T03:52:17;101714.97;;;18.97;86.77
38163;BME280;23977;53.078;18.248;2023-08-17T03:54:43;101708.75;;;18.97;86.75
38163;BME280;23977;53.078;18.248;2023-08-17T03:57:08;101728.31;;;19.06;86.91
38163;BME280;23977;53.078;18.248;2023-08-17T03:59:34;101712.19;;;18.91;87.46
38163;BME280;23977;53.078;18.248;2023-08-17T04:01:59;101739.56;;;19.09;87.50
38163;BME280;23977;53.078;18.248;2023-08-17T04:04:25;101746.41;;;19.12;87.63
38163;BME280;23977;53.078;18.248;2023-08-17T04:06:51;101742.25;;;19.09;87.80
38163;BME280;23977;53.078;18.248;2023-08-17T04:09:16;101719.97;;;19.00;88.28
38163;BME280;23977;53.078;18.248;2023-08-17T04:11:42;101753.00;;;19.24;87.54
38163;BME280;23977;53.078;18.248;2023-08-17T04:14:07;101755.50;;;19.26;87.96
38163;BME280;23977;53.078;18.248;2023-08-17T04:16:34;101755.50;;;19.26;88.37
38163;BME280;23977;53.078;18.248;2023-08-17T04:19:00;101755.13;;;19.29;88.79
38163;BME280;23977;53.078;18.248;2023-08-17T04:21:26;101742.31;;;19.37;88.82
38163;BME280;23977;53.078;18.248;2023-08-17T04:23:51;101743.63;;;19.48;88.59
38163;BME280;23977;53.078;18.248;2023-08-17T04:26:17;101738.91;;;19.50;88.18
38163;BME280;23977;53.078;18.248;2023-08-17T04:28:42;101757.09;;;19.70;87.29
38163;BME280;23977;53.078;18.248;2023-08-17T04:31:08;101750.88;;;19.69;86.86
38163;BME280;23977;53.078;18.248;2023-08-17T04:33:34;101782.53;;;19.75;87.29
38163;BME280;23977;53.078;18.248;2023-08-17T04:35:59;101793.13;;;20.05;86.05
38163;BME280;23977;53.078;18.248;2023-08-17T04:38:26;101795.69;;;20.13;86.04
38163;BME280;23977;53.078;18.248;2023-08-17T04:40:52;101801.28;;;20.47;84.96
38163;BME280;23977;53.078;18.248;2023-08-17T04:43:17;101787.75;;;20.47;84.94
38163;BME280;23977;53.078;18.248;2023-08-17T04:45:43;101781.00;;;20.64;83.43
38163;BME280;23977;53.078;18.248;2023-08-17T04:48:10;101777.25;;;20.65;83.75
38163;BME280;23977;53.078;18.248;2023-08-17T04:50:35;101767.91;;;20.75;82.63
38163;BME280;23977;53.078;18.248;2023-08-17T04:53:01;101775.06;;;20.96;81.38
38163;BME280;23977;53.078;18.248;2023-08-17T04:55:28;101759.06;;;21.07;80.50
38163;BME280;23977;53.078;18.248;2023-08-17T04:57:53;101772.81;;;21.33;79.13
38163;BME280;23977;53.078;18.248;2023-08-17T05:00:19;101769.53;;;21.51;78.16
38163;BME280;23977;53.078;18.248;2023-08-17T05:02:50;101773.03;;;21.44;78.46
38163;BME280;23977;53.078;18.248;2023-08-17T05:05:16;101780.53;;;21.42;78.58
38163;BME280;23977;53.078;18.248;2023-08-17T05:07:42;101773.66;;;21.33;78.31
38163;BME280;23977;53.078;18.248;2023-08-17T05:10:08;101758.25;;;21.27;78.47
38163;BME280;23977;53.078;18.248;2023-08-17T05:12:34;101764.91;;;21.24;78.96
38163;BME280;23977;53.078;18.248;2023-08-17T05:14:59;101766.16;;;21.22;79.28
38163;BME280;23977;53.078;18.248;2023-08-17T05:17:25;101771.56;;;21.22;78.59
38163;BME280;23977;53.078;18.248;2023-08-17T05:19:50;101767.59;;;21.18;79.37
38163;BME280;23977;53.078;18.248;2023-08-17T05:22:17;101756.13;;;21.09;80.13
38163;BME280;23977;53.078;18.248;2023-08-17T05:24:42;101750.31;;;20.99;79.99
38163;BME280;23977;53.078;18.248;2023-08-17T05:27:08;101753.63;;;21.01;80.58
38163;BME280;23977;53.078;18.248;2023-08-17T05:29:33;101747.63;;;21.12;80.26
38163;BME280;23977;53.078;18.248;2023-08-17T05:31:59;101754.94;;;21.25;79.73
38163;BME280;23977;53.078;18.248;2023-08-17T05:34:25;101769.09;;;21.40;79.48
38163;BME280;23977;53.078;18.248;2023-08-17T05:36:50;101743.66;;;21.41;78.75
38163;BME280;23977;53.078;18.248;2023-08-17T05:39:16;101762.81;;;21.47;79.75
38163;BME280;23977;53.078;18.248;2023-08-17T05:41:42;101754.69;;;21.26;79.91
38163;BME280;23977;53.078;18.248;2023-08-17T05:44:07;101747.41;;;21.07;80.93
38163;BME280;23977;53.078;18.248;2023-08-17T05:46:33;101736.31;;;20.82;81.71
38163;BME280;23977;53.078;18.248;2023-08-17T05:49:00;101743.13;;;20.64;82.44
38163;BME280;23977;53.078;18.248;2023-08-17T05:51:26;101734.19;;;20.70;82.39
38163;BME280;23977;53.078;18.248;2023-08-17T05:53:51;101733.16;;;20.72;82.07
38163;BME280;23977;53.078;18.248;2023-08-17T05:56:17;101759.09;;;20.59;82.88
38163;BME280;23977;53.078;18.248;2023-08-17T05:58:43;101753.06;;;20.57;82.95
38163;BME280;23977;53.078;18.248;2023-08-17T06:01:09;101753.94;;;20.64;82.36
38163;BME280;23977;53.078;18.248;2023-08-17T06:03:36;101746.75;;;20.43;82.63
38163;BME280;23977;53.078;18.248;2023-08-17T06:06:03;101770.13;;;20.58;82.50
38163;BME280;23977;53.078;18.248;2023-08-17T06:08:29;101785.03;;;20.82;80.77
38163;BME280;23977;53.078;18.248;2023-08-17T06:10:55;101792.31;;;20.88;81.12
38163;BME280;23977;53.078;18.248;2023-08-17T06:13:20;101805.28;;;21.13;79.31
38163;BME280;23977;53.078;18.248;2023-08-17T06:15:47;101813.69;;;21.71;77.61
38163;BME280;23977;53.078;18.248;2023-08-17T06:18:12;101803.91;;;21.90;76.17
38163;BME280;23977;53.078;18.248;2023-08-17T06:20:38;101793.84;;;22.17;74.67
38163;BME280;23977;53.078;18.248;2023-08-17T06:23:03;101787.16;;;22.27;74.98
38163;BME280;23977;53.078;18.248;2023-08-17T06:25:29;101799.69;;;22.80;73.03
38163;BME280;23977;53.078;18.248;2023-08-17T06:27:55;101798.25;;;23.22;70.82
38163;BME280;23977;53.078;18.248;2023-08-17T06:30:21;101791.28;;;23.58;69.88
38163;BME280;23977;53.078;18.248;2023-08-17T06:32:47;101787.31;;;24.05;68.40
38163;BME280;23977;53.078;18.248;2023-08-17T06:35:12;101785.06;;;25.18;65.02
38163;BME280;23977;53.078;18.248;2023-08-17T06:37:38;101795.75;;;25.73;61.70
38163;BME280;23977;53.078;18.248;2023-08-17T06:40:04;101786.47;;;25.51;61.07
38163;BME280;23977;53.078;18.248;2023-08-17T06:42:34;101783.75;;;26.74;57.46
38163;BME280;23977;53.078;18.248;2023-08-17T06:45:00;101761.28;;;27.01;56.61
38163;BME280;23977;53.078;18.248;2023-08-17T06:47:26;101781.06;;;27.54;55.54
38163;BME280;23977;53.078;18.248;2023-08-17T06:49:51;101784.00;;;27.86;53.68
38163;BME280;23977;53.078;18.248;2023-08-17T06:52:17;101778.06;;;27.21;54.10
38163;BME280;23977;53.078;18.248;2023-08-17T06:54:43;101763.47;;;26.70;56.37
38163;BME280;23977;53.078;18.248;2023-08-17T06:57:08;101778.78;;;26.71;56.26
38163;BME280;23977;53.078;18.248;2023-08-17T06:59:34;101773.22;;;26.54;57.38
38163;BME280;23977;53.078;18.248;2023-08-17T07:01:59;101775.53;;;26.45;57.24
38163;BME280;23977;53.078;18.248;2023-08-17T07:04:25;101777.44;;;26.33;56.49
38163;BME280;23977;53.078;18.248;2023-08-17T07:06:51;101764.28;;;27.16;54.52
38163;BME280;23977;53.078;18.248;2023-08-17T07:09:16;101780.28;;;27.92;52.48
38163;BME280;23977;53.078;18.248;2023-08-17T07:11:42;101773.31;;;28.46;50.33
38163;BME280;23977;53.078;18.248;2023-08-17T07:14:08;101770.38;;;28.52;50.66
38163;BME280;23977;53.078;18.248;2023-08-17T07:16:33;101771.16;;;29.62;48.48
38163;BME280;23977;53.078;18.248;2023-08-17T07:18:59;101761.22;;;30.51;45.13
38163;BME280;23977;53.078;18.248;2023-08-17T07:21:25;101765.75;;;31.09;43.58
38163;BME280;23977;53.078;18.248;2023-08-17T07:23:54;101771.91;;;30.48;44.78
38163;BME280;23977;53.078;18.248;2023-08-17T07:26:20;101773.28;;;29.49;46.12
38163;BME280;23977;53.078;18.248;2023-08-17T07:28:46;101772.09;;;29.08;47.41
38163;BME280;23977;53.078;18.248;2023-08-17T07:31:12;101767.38;;;27.71;50.75
38163;BME280;23977;53.078;18.248;2023-08-17T07:33:38;101790.63;;;27.22;52.46
38163;BME280;23977;53.078;18.248;2023-08-17T07:36:04;101799.84;;;26.87;53.49
38163;BME280;23977;53.078;18.248;2023-08-17T07:38:30;101784.19;;;26.83;54.02
38163;BME280;23977;53.078;18.248;2023-08-17T07:40:56;101796.78;;;27.29;53.78
38163;BME280;23977;53.078;18.248;2023-08-17T07:43:23;101790.00;;;27.49;53.77
38163;BME280;23977;53.078;18.248;2023-08-17T07:45:55;101778.31;;;28.98;49.49
38163;BME280;23977;53.078;18.248;2023-08-17T07:48:21;101784.09;;;29.29;47.72
38163;BME280;23977;53.078;18.248;2023-08-17T07:50:51;101788.31;;;28.87;48.93
38163;BME280;23977;53.078;18.248;2023-08-17T07:53:18;101790.00;;;28.00;50.71
38163;BME280;23977;53.078;18.248;2023-08-17T07:55:43;101791.53;;;27.40;52.80
38163;BME280;23977;53.078;18.248;2023-08-17T07:58:09;101788.22;;;27.09;53.80
38163;BME280;23977;53.078;18.248;2023-08-17T08:00:34;101781.59;;;26.76;55.21
38163;BME280;23977;53.078;18.248;2023-08-17T08:03:00;101779.59;;;26.59;55.71
38163;BME280;23977;53.078;18.248;2023-08-17T08:05:26;101783.31;;;26.65;55.69
38163;BME280;23977;53.078;18.248;2023-08-17T08:07:52;101764.25;;;26.82;54.68
38163;BME280;23977;53.078;18.248;2023-08-17T08:10:18;101789.22;;;26.74;55.42
38163;BME280;23977;53.078;18.248;2023-08-17T08:12:43;101794.53;;;26.81;55.19
38163;BME280;23977;53.078;18.248;2023-08-17T08:15:09;101797.91;;;27.00;55.09
38163;BME280;23977;53.078;18.248;2023-08-17T08:17:35;101775.19;;;27.45;53.66
38163;BME280;23977;53.078;18.248;2023-08-17T08:20:01;101804.66;;;28.55;50.40
38163;BME280;23977;53.078;18.248;2023-08-17T08:22:27;101815.63;;;29.64;48.30
38163;BME280;23977;53.078;18.248;2023-08-17T08:24:52;101807.47;;;33.82;40.83
38163;BME280;23977;53.078;18.248;2023-08-17T08:27:18;101806.91;;;38.12;33.83
38163;BME280;23977;53.078;18.248;2023-08-17T08:29:44;101794.06;;;40.87;30.21
38163;BME280;23977;53.078;18.248;2023-08-17T08:32:10;101768.13;;;41.45;28.77
38163;BME280;23977;53.078;18.248;2023-08-17T08:34:35;101767.75;;;42.74;27.77
38163;BME280;23977;53.078;18.248;2023-08-17T08:37:01;101756.84;;;43.60;26.56
38163;BME280;23977;53.078;18.248;2023-08-17T08:39:26;101762.81;;;43.43;26.24
38163;BME280;23977;53.078;18.248;2023-08-17T08:41:53;101734.38;;;41.26;28.41
38163;BME280;23977;53.078;18.248;2023-08-17T08:44:19;101727.75;;;39.23;30.38
38163;BME280;23977;53.078;18.248;2023-08-17T08:46:45;101735.00;;;39.07;30.67
38163;BME280;23977;53.078;18.248;2023-08-17T08:49:11;101725.16;;;39.18;30.91
38163;BME280;23977;53.078;18.248;2023-08-17T08:51:49;101724.31;;;42.80;27.22
38163;BME280;23977;53.078;18.248;2023-08-17T08:54:20;101715.66;;;42.28;27.56
38163;BME280;23977;53.078;18.248;2023-08-17T08:56:54;101718.88;;;43.15;26.88
38163;BME280;23977;53.078;18.248;2023-08-17T08:59:21;101703.81;;;43.36;25.96
38163;BME280;23977;53.078;18.248;2023-08-17T09:01:47;101706.63;;;42.19;27.11
38163;BME280;23977;53.078;18.248;2023-08-17T09:04:13;101705.06;;;41.69;27.77
38163;BME280;23977;53.078;18.248;2023-08-17T09:06:39;101701.38;;;42.46;27.48
38163;BME280;23977;53.078;18.248;2023-08-17T09:09:07;101702.59;;;40.51;28.98
38163;BME280;23977;53.078;18.248;2023-08-17T09:11:33;101671.34;;;37.02;33.04
38163;BME280;23977;53.078;18.248;2023-08-17T09:13:59;101692.09;;;39.55;30.66
38163;BME280;23977;53.078;18.248;2023-08-17T09:16:25;101708.38;;;41.25;28.80
38163;BME280;23977;53.078;18.248;2023-08-17T09:18:55;101705.59;;;41.99;27.62
38163;BME280;23977;53.078;18.248;2023-08-17T09:21:22;101714.91;;;43.32;26.83
38163;BME280;23977;53.078;18.248;2023-08-17T09:23:52;101722.31;;;43.92;25.82
38163;BME280;23977;53.078;18.248;2023-08-17T09:26:20;101720.59;;;43.52;26.22
38163;BME280;23977;53.078;18.248;2023-08-17T09:28:47;101706.38;;;44.31;25.75
38163;BME280;23977;53.078;18.248;2023-08-17T09:31:13;101705.09;;;44.91;25.15
38163;BME280;23977;53.078;18.248;2023-08-17T09:33:39;101709.56;;;44.92;24.84
38163;BME280;23977;53.078;18.248;2023-08-17T09:36:05;101707.13;;;41.35;27.91
38163;BME280;23977;53.078;18.248;2023-08-17T09:38:30;101695.91;;;37.58;32.32
38163;BME280;23977;53.078;18.248;2023-08-17T09:40:57;101707.94;;;35.39;35.61
38163;BME280;23977;53.078;18.248;2023-08-17T09:43:23;101691.47;;;33.34;38.73
38163;BME280;23977;53.078;18.248;2023-08-17T09:45:51;101681.75;;;32.38;40.44
38163;BME280;23977;53.078;18.248;2023-08-17T09:48:19;101678.78;;;31.44;43.91
38163;BME280;23977;53.078;18.248;2023-08-17T09:50:47;101683.78;;;31.26;43.55
38163;BME280;23977;53.078;18.248;2023-08-17T09:53:17;101685.94;;;30.52;45.34
38163;BME280;23977;53.078;18.248;2023-08-17T09:55:44;101677.41;;;31.57;43.59
38163;BME280;23977;53.078;18.248;2023-08-17T09:58:10;101664.41;;;31.83;43.50
38163;BME280;23977;53.078;18.248;2023-08-17T10:00:47;101669.91;;;31.83;43.93
38163;BME280;23977;53.078;18.248;2023-08-17T10:03:15;101666.19;;;31.22;44.85
38163;BME280;23977;53.078;18.248;2023-08-17T10:05:43;101650.66;;;31.72;43.83
38163;BME280;23977;53.078;18.248;2023-08-17T10:08:10;101645.41;;;31.81;43.84
38163;BME280;23977;53.078;18.248;2023-08-17T10:10:40;101651.31;;;32.19;43.32
38163;BME280;23977;53.078;18.248;2023-08-17T10:13:11;101651.66;;;33.11;42.18
38163;BME280;23977;53.078;18.248;2023-08-17T10:18:29;101637.75;;;32.28;43.00
38163;BME280;23977;53.078;18.248;2023-08-17T10:21:01;101638.72;;;31.12;45.75
38163;BME280;23977;53.078;18.248;2023-08-17T10:23:28;101637.63;;;30.46;47.70
38163;BME280;23977;53.078;18.248;2023-08-17T10:25:54;101613.44;;;30.48;48.22
38163;BME280;23977;53.078;18.248;2023-08-17T10:28:23;101604.66;;;30.46;48.93
38163;BME280;23977;53.078;18.248;2023-08-17T10:30:50;101615.00;;;30.08;48.69
38163;BME280;23977;53.078;18.248;2023-08-17T10:33:16;101602.78;;;29.68;50.27
38163;BME280;23977;53.078;18.248;2023-08-17T10:35:42;101620.22;;;29.41;51.85
38163;BME280;23977;53.078;18.248;2023-08-17T10:38:09;101609.53;;;29.07;53.17
38163;BME280;23977;53.078;18.248;2023-08-17T10:40:37;101618.22;;;28.94;53.47
38163;BME280;23977;53.078;18.248;2023-08-17T10:43:03;101607.53;;;28.92;54.27
38163;BME280;23977;53.078;18.248;2023-08-17T10:45:30;101616.84;;;28.59;55.47
38163;BME280;23977;53.078;18.248;2023-08-17T10:50:35;101623.25;;;28.70;55.30
38163;BME280;23977;53.078;18.248;2023-08-17T10:53:08;101617.38;;;28.56;55.41
38163;BME280;23977;53.078;18.248;2023-08-17T10:55:42;101622.06;;;28.33;56.68
38163;BME280;23977;53.078;18.248;2023-08-17T10:58:09;101629.53;;;28.16;57.09
38163;BME280;23977;53.078;18.248;2023-08-17T11:00:40;101597.63;;;27.99;57.83
38163;BME280;23977;53.078;18.248;2023-08-17T11:03:09;101625.13;;;28.10;57.43
38163;BME280;23977;53.078;18.248;2023-08-17T11:05:48;101620.06;;;28.23;57.28
38163;BME280;23977;53.078;18.248;2023-08-17T11:08:34;101625.63;;;28.34;57.17
38163;BME280;23977;53.078;18.248;2023-08-17T11:11:05;101639.28;;;28.56;56.41
38163;BME280;23977;53.078;18.248;2023-08-17T11:13:33;101646.34;;;28.52;56.57
38163;BME280;23977;53.078;18.248;2023-08-17T11:16:00;101644.31;;;28.69;56.71
38163;BME280;23977;53.078;18.248;2023-08-17T11:18:26;101639.00;;;28.57;56.96
38163;BME280;23977;53.078;18.248;2023-08-17T11:20:53;101638.41;;;28.83;56.35
38163;BME280;23977;53.078;18.248;2023-08-17T11:23:20;101636.38;;;28.68;56.24
38163;BME280;23977;53.078;18.248;2023-08-17T11:25:46;101631.50;;;28.75;56.71
38163;BME280;23977;53.078;18.248;2023-08-17T11:28:12;101622.56;;;28.85;56.88
38163;BME280;23977;53.078;18.248;2023-08-17T11:30:40;101625.81;;;29.19;55.34
38163;BME280;23977;53.078;18.248;2023-08-17T11:33:07;101620.22;;;29.04;55.64
38163;BME280;23977;53.078;18.248;2023-08-17T11:35:33;101634.63;;;28.89;55.96
38163;BME280;23977;53.078;18.248;2023-08-17T11:37:59;101596.19;;;28.78;56.18
38163;BME280;23977;53.078;18.248;2023-08-17T11:40:26;101617.09;;;28.90;55.85
38163;BME280;23977;53.078;18.248;2023-08-17T11:42:52;101621.66;;;28.79;56.94
38163;BME280;23977;53.078;18.248;2023-08-17T11:45:19;101615.00;;;29.02;56.64
38163;BME280;23977;53.078;18.248;2023-08-17T11:47:46;101619.38;;;28.98;56.42
38163;BME280;23977;53.078;18.248;2023-08-17T11:50:13;101619.09;;;29.00;56.67
38163;BME280;23977;53.078;18.248;2023-08-17T11:52:40;101613.88;;;28.98;56.03
38163;BME280;23977;53.078;18.248;2023-08-17T11:55:08;101612.59;;;28.73;58.32
38163;BME280;23977;53.078;18.248;2023-08-17T11:57:36;101612.16;;;28.87;57.59
38163;BME280;23977;53.078;18.248;2023-08-17T12:00:03;101602.00;;;28.87;57.23
38163;BME280;23977;53.078;18.248;2023-08-17T12:02:31;101586.25;;;28.67;56.91
38163;BME280;23977;53.078;18.248;2023-08-17T12:04:57;101605.53;;;28.83;56.43
38163;BME280;23977;53.078;18.248;2023-08-17T12:07:23;101605.38;;;28.62;56.69
38163;BME280;23977;53.078;18.248;2023-08-17T12:09:50;101603.22;;;28.69;57.56
38163;BME280;23977;53.078;18.248;2023-08-17T12:12:21;101607.03;;;28.63;57.52
38163;BME280;23977;53.078;18.248;2023-08-17T12:14:48;101605.91;;;28.59;56.57
38163;BME280;23977;53.078;18.248;2023-08-17T12:17:15;101609.75;;;28.58;57.41
38163;BME280;23977;53.078;18.248;2023-08-17T12:19:42;101590.59;;;28.63;57.47
38163;BME280;23977;53.078;18.248;2023-08-17T12:22:08;101604.94;;;28.75;57.60
38163;BME280;23977;53.078;18.248;2023-08-17T12:24:33;101599.53;;;28.86;57.55
38163;BME280;23977;53.078;18.248;2023-08-17T12:27:04;101601.72;;;28.84;57.33
38163;BME280;23977;53.078;18.248;2023-08-17T12:29:30;101603.81;;;28.71;57.89
38163;BME280;23977;53.078;18.248;2023-08-17T12:32:02;101596.31;;;28.94;57.60
38163;BME280;23977;53.078;18.248;2023-08-17T12:34:28;101609.88;;;29.16;57.85
38163;BME280;23977;53.078;18.248;2023-08-17T12:36:54;101594.97;;;28.96;56.75
38163;BME280;23977;53.078;18.248;2023-08-17T12:39:19;101607.31;;;29.04;56.92
38163;BME280;23977;53.078;18.248;2023-08-17T12:41:45;101586.81;;;29.07;56.80
38163;BME280;23977;53.078;18.248;2023-08-17T12:44:11;101581.34;;;29.12;57.04